Terminal Aerodrome Forecast
Issued by NWS

Home | Current Version | Previous Version | Text Only | Print | Product List | Glossary On
Versions: 1 2 3 4 5 6 7 8 9 10 11 12 13 14 15 16 17 18 19 20 21 22 23 24 25 26
659
FTUS46 KPDT 171141
TAFDLS
TAF
KDLS 171141Z 1712/1812 10003KT 1/4SM FG BKN002 OVC007
      TEMPO 1713/1715 2SM BR SCT003 OVC007
     FM171500 09003KT 2SM BR VCSH FEW003 BKN008 OVC070
     FM171900 10003KT 6SM BR BKN012 BKN200
     FM180100 VRB02KT 5SM BR BKN007 OVC012
     FM180600 09003KT 3SM -RA BR SCT008 OVC020=

USA.gov is the U.S. government's official web portal to all federal, state and local government web resources and services.